Time;durP1;ratioP1;P1;durP2;ratioP2;P2;SDS_P1;SDS_P2;PMS_P1;PMS_P2;Temp;Humidity;BMP_temperature;BMP_pressure;BME280_temperature;BME280_humidity;BME280_pressure;Samples;Min_cycle;Max_cycle;Signal;HPM_P1;HPM_P2
2021/03/30 00:00:35;;;;;;;45.97;25.73;;;8.20;99.90;;;;;;5037512;28;20172;-91
2021/03/30 00:03:01;;;;;;;45.37;24.87;;;7.40;99.90;;;;;;5019145;28;20173;-91
2021/03/30 00:05:27;;;;;;;47.77;26.33;;;7.80;99.90;;;;;;5019380;28;20697;-90
2021/03/30 00:46:54;;;;;;;53.53;28.73;;;7.90;99.90;;;;;;5733536;23;20254;-91
2021/03/30 00:49:20;;;;;;;53.03;27.70;;;7.80;99.90;;;;;;5052120;28;20190;-90
2021/03/30 00:51:47;;;;;;;51.63;28.47;;;7.80;99.90;;;;;;5018727;28;20639;-91
2021/03/30 00:54:15;;;;;;;57.47;29.77;;;7.80;99.90;;;;;;5053219;28;20186;-90
2021/03/30 00:56:42;;;;;;;58.63;29.57;;;7.80;99.90;;;;;;5035034;28;20646;-91
2021/03/30 00:59:08;;;;;;;58.23;29.60;;;8.00;99.90;;;;;;5053320;28;20176;-90
2021/03/30 01:01:36;;;;;;;56.07;30.33;;;7.90;99.90;;;;;;5034965;28;20199;-91
2021/03/30 01:04:02;;;;;;;66.83;29.50;;;7.80;99.90;;;;;;5052903;28;20191;-91
2021/03/30 01:06:28;;;;;;;54.17;30.57;;;7.90;99.90;;;;;;5035165;28;20214;-90
2021/03/30 01:09:24;;;;;;;64.37;32.23;;;7.80;99.90;;;;;;5052996;28;20294;-90
2021/03/30 01:11:59;;;;;;;56.83;31.00;;;7.80;99.90;;;;;;5051737;28;20175;-91
2021/03/30 01:14:46;;;;;;;60.47;31.77;;;7.90;99.90;;;;;;5035079;28;20218;-91
2021/03/30 01:17:37;;;;;;;58.37;31.17;;;7.80;99.90;;;;;;5035225;28;20172;-91
2021/03/30 01:20:33;;;;;;;61.60;31.10;;;7.80;99.90;;;;;;5034986;28;20186;-90
2021/03/30 01:23:09;;;;;;;63.90;33.23;;;7.80;99.90;;;;;;5035046;28;20175;-90
2021/03/30 01:25:41;;;;;;;61.97;32.77;;;7.80;99.90;;;;;;5034618;28;20175;-94
2021/03/30 01:28:39;;;;;;;69.17;33.07;;;7.80;99.90;;;;;;5034937;28;20211;-90
2021/03/30 01:31:05;;;;;;;69.50;33.30;;;7.80;99.90;;;;;;4981297;28;20219;-90
2021/03/30 01:33:34;;;;;;;63.53;32.57;;;7.80;99.90;;;;;;5002332;28;20590;-90
2021/03/30 01:36:03;;;;;;;62.43;33.07;;;8.00;99.90;;;;;;5034765;28;20262;-89
2021/03/30 01:38:29;;;;;;;54.50;32.40;;;8.00;99.90;;;;;;5034910;28;20168;-91
2021/03/30 01:40:57;;;;;;;68.97;32.97;;;7.80;99.90;;;;;;5034587;28;20180;-89
2021/03/30 01:43:24;;;;;;;66.77;34.73;;;7.70;99.90;;;;;;5001975;28;20581;-90
2021/03/30 01:45:55;;;;;;;68.77;33.63;;;7.80;99.90;;;;;;5034492;28;20180;-89
2021/03/30 01:48:22;;;;;;;69.00;33.73;;;7.80;99.90;;;;;;5035306;28;20187;-90
2021/03/30 01:50:51;;;;;;;65.43;35.20;;;7.80;99.90;;;;;;5034733;28;20184;-90
2021/03/30 01:53:18;;;;;;;62.83;33.83;;;7.80;99.90;;;;;;5052540;28;20176;-90
2021/03/30 01:55:48;;;;;;;62.73;34.23;;;7.80;99.90;;;;;;5034255;28;20219;-90
2021/03/30 01:58:20;;;;;;;71.97;35.17;;;7.80;99.90;;;;;;5055950;28;20204;-90
2021/03/30 02:00:46;;;;;;;68.63;34.90;;;7.80;99.90;;;;;;5022367;28;20184;-91
2021/03/30 02:03:13;;;;;;;65.80;34.43;;;7.80;99.90;;;;;;5056317;28;20183;-91
2021/03/30 02:05:40;;;;;;;60.80;33.47;;;7.70;99.90;;;;;;5038363;28;20191;-89
2021/03/30 02:08:08;;;;;;;69.07;34.53;;;7.80;99.90;;;;;;5056062;28;20190;-90
2021/03/30 02:10:46;;;;;;;67.17;35.53;;;7.80;99.90;;;;;;5056230;28;20176;-90
2021/03/30 02:16:19;;;;;;;72.10;34.57;;;7.80;99.90;;;;;;5050770;28;20272;-91
2021/03/30 02:18:58;;;;;;;67.93;37.43;;;8.00;99.90;;;;;;5037817;28;20225;-90
2021/03/30 02:21:33;;;;;;;74.23;37.00;;;7.90;99.90;;;;;;5055096;28;20184;-90
2021/03/30 02:24:03;;;;;;;75.93;39.17;;;7.90;99.90;;;;;;5037989;28;20175;-90
2021/03/30 02:26:31;;;;;;;76.20;40.27;;;7.90;99.90;;;;;;5037960;28;20176;-90
2021/03/30 02:28:58;;;;;;;75.87;41.60;;;7.90;99.90;;;;;;5037527;28;20191;-90
2021/03/30 02:31:29;;;;;;;84.17;41.67;;;7.90;99.90;;;;;;5055583;28;20262;-90
2021/03/30 02:33:58;;;;;;;74.97;41.90;;;7.90;99.90;;;;;;5037839;28;20226;-90
2021/03/30 02:36:27;;;;;;;82.10;41.67;;;7.90;99.90;;;;;;5055636;28;20697;-91
2021/03/30 02:38:56;;;;;;;79.77;42.10;;;7.80;99.90;;;;;;5055484;28;20198;-90
2021/03/30 02:41:29;;;;;;;78.67;42.50;;;7.90;99.90;;;;;;5037506;28;20210;-90
2021/03/30 02:43:58;;;;;;;73.90;38.93;;;7.80;99.90;;;;;;5037599;28;20176;-89
2021/03/30 02:46:25;;;;;;;73.33;40.33;;;7.80;99.90;;;;;;5037539;28;20234;-89
2021/03/30 02:48:52;;;;;;;78.53;40.43;;;7.80;99.90;;;;;;5055142;28;20172;-90
2021/03/30 02:51:21;;;;;;;78.27;40.80;;;8.00;99.90;;;;;;5055469;28;20185;-90
2021/03/30 02:53:51;;;;;;;74.80;39.07;;;7.90;99.90;;;;;;5053873;28;20184;-90
2021/03/30 02:56:17;;;;;;;85.67;41.57;;;7.80;99.90;;;;;;5037420;28;20209;-91
2021/03/30 02:58:45;;;;;;;74.47;39.97;;;7.80;99.90;;;;;;5037424;28;20176;-90
2021/03/30 03:01:16;;;;;;;85.00;45.57;;;7.80;99.90;;;;;;5037189;28;20172;-90
2021/03/30 03:03:44;;;;;;;81.73;42.83;;;7.90;99.90;;;;;;5054986;28;20561;-89
2021/03/30 03:06:11;;;;;;;82.77;43.17;;;7.90;99.90;;;;;;5037141;28;20623;-87
2021/03/30 03:08:38;;;;;;;86.17;43.60;;;7.80;99.90;;;;;;5036819;28;20172;-88
2021/03/30 03:11:06;;;;;;;78.97;42.13;;;7.80;99.90;;;;;;5054791;28;20176;-88
2021/03/30 03:13:35;;;;;;;86.40;41.47;;;7.80;99.90;;;;;;5020675;28;20189;-88
2021/03/30 03:16:00;;;;;;;80.00;40.77;;;7.80;99.90;;;;;;5054661;28;20208;-89
2021/03/30 03:18:26;;;;;;;85.63;41.17;;;7.80;99.90;;;;;;5020620;28;20190;-88
2021/03/30 03:20:53;;;;;;;85.23;41.07;;;7.80;99.90;;;;;;5020103;28;20184;-90
2021/03/30 03:23:19;;;;;;;80.53;41.17;;;7.80;99.90;;;;;;5004030;28;20184;-88
2021/03/30 03:25:46;;;;;;;78.67;39.90;;;7.90;99.90;;;;;;5020459;28;20326;-89
2021/03/30 03:28:12;;;;;;;80.57;43.13;;;7.80;99.90;;;;;;5036727;28;20222;-88
2021/03/30 03:30:42;;;;;;;80.67;41.37;;;6.60;99.90;;;;;;5036609;28;20191;-89
2021/03/30 03:33:13;;;;;;;93.77;43.37;;;7.80;99.90;;;;;;5036377;28;20632;-90
2021/03/30 03:35:40;;;;;;;79.90;40.37;;;7.80;99.90;;;;;;5036354;28;20287;-89
2021/03/30 03:38:06;;;;;;;80.23;41.57;;;7.90;99.90;;;;;;5036385;28;20184;-89
2021/03/30 03:40:33;;;;;;;87.33;42.47;;;7.80;99.90;;;;;;5036780;28;20183;-89
2021/03/30 03:42:59;;;;;;;83.90;42.13;;;7.90;99.90;;;;;;5036260;28;20208;-89
2021/03/30 03:45:25;;;;;;;86.60;42.50;;;7.90;99.90;;;;;;5036628;28;20225;-88
2021/03/30 03:47:51;;;;;;;90.67;44.07;;;8.00;99.90;;;;;;5035792;28;20696;-94
2021/03/30 03:50:19;;;;;;;83.57;42.30;;;7.80;99.90;;;;;;5054070;28;20180;-89
2021/03/30 03:52:50;;;;;;;91.80;43.53;;;7.90;99.90;;;;;;5036250;28;20188;-89
2021/03/30 03:55:18;;;;;;;95.50;45.17;;;7.90;99.90;;;;;;5036169;28;20215;-89
2021/03/30 03:57:58;;;;;;;91.97;44.27;;;8.00;99.90;;;;;;5054535;28;20177;-90
2021/03/30 04:00:25;;;;;;;90.47;46.00;;;7.90;99.90;;;;;;5054143;28;20198;-90
2021/03/30 04:03:03;;;;;;;95.83;47.87;;;7.90;99.90;;;;;;5035914;28;20172;-90
2021/03/30 04:05:39;;;;;;;95.17;47.57;;;7.90;99.90;;;;;;5036473;28;20186;-90
2021/03/30 04:08:12;;;;;;;105.53;48.30;;;7.90;99.90;;;;;;5035986;28;20194;-89
2021/03/30 04:10:42;;;;;;;103.27;48.73;;;7.80;99.90;;;;;;5035955;28;20175;-89
2021/03/30 04:13:08;;;;;;;99.80;46.27;;;7.90;99.90;;;;;;5035621;28;20179;-89
2021/03/30 04:15:34;;;;;;;101.73;48.23;;;8.00;99.90;;;;;;5053568;28;20204;-90
2021/03/30 04:18:00;;;;;;;106.87;50.47;;;7.80;99.90;;;;;;5019506;28;20180;-90
2021/03/30 04:20:26;;;;;;;103.23;46.53;;;7.80;99.90;;;;;;5053143;28;20254;-91
2021/03/30 04:22:55;;;;;;;103.97;47.73;;;7.80;99.90;;;;;;5053730;28;20176;-88
2021/03/30 04:25:22;;;;;;;103.20;48.27;;;7.80;99.90;;;;;;5035493;28;20180;-89
2021/03/30 04:27:47;;;;;;;106.90;47.37;;;7.80;99.90;;;;;;5035466;28;20183;-89
2021/03/30 04:30:14;;;;;;;105.73;47.73;;;7.90;99.90;;;;;;5018850;28;20190;-89
2021/03/30 04:32:40;;;;;;;106.93;49.80;;;7.80;99.90;;;;;;5035967;28;20194;-90
2021/03/30 04:35:06;;;;;;;111.87;49.27;;;8.00;99.90;;;;;;5035462;28;20691;-89
2021/03/30 04:37:31;;;;;;;117.03;50.27;;;7.80;99.90;;;;;;5053435;28;20224;-89
2021/03/30 04:39:57;;;;;;;131.30;55.57;;;7.80;99.90;;;;;;5035332;28;20179;-89
2021/03/30 04:42:25;;;;;;;116.33;52.00;;;7.80;99.90;;;;;;5053243;28;20241;-90
2021/03/30 04:44:51;;;;;;;116.43;50.87;;;8.00;99.90;;;;;;5053295;28;20191;-89
2021/03/30 04:47:18;;;;;;;118.63;51.70;;;7.80;99.90;;;;;;5035103;28;20232;-90
2021/03/30 04:49:43;;;;;;;127.57;53.10;;;7.90;99.90;;;;;;5019091;28;20187;-89
2021/03/30 04:52:10;;;;;;;106.10;47.90;;;7.80;99.90;;;;;;5035203;28;20179;-89
2021/03/30 04:54:36;;;;;;;112.17;50.10;;;7.90;99.90;;;;;;5053073;28;20245;-89
2021/03/30 04:57:02;;;;;;;112.03;51.07;;;7.80;99.90;;;;;;5018353;28;20215;-89
2021/03/30 04:59:27;;;;;;;115.77;51.03;;;7.90;99.90;;;;;;5019013;28;20199;-89
2021/03/30 05:01:53;;;;;;;121.67;52.20;;;7.90;99.90;;;;;;5019041;28;20195;-90
2021/03/30 05:04:19;;;;;;;116.57;51.63;;;7.80;99.90;;;;;;5011854;28;20234;-90
2021/03/30 05:06:45;;;;;;;133.37;53.83;;;7.90;99.90;;;;;;5033352;28;20235;-89
2021/03/30 05:09:11;;;;;;;118.37;50.27;;;7.90;99.90;;;;;;5028271;28;20551;-90
2021/03/30 05:11:36;;;;;;;130.43;52.93;;;7.90;99.90;;;;;;5049105;28;20223;-89
2021/03/30 05:14:03;;;;;;;124.73;49.67;;;7.90;99.90;;;;;;5017471;28;20688;-91
2021/03/30 05:16:28;;;;;;;108.63;47.37;;;8.10;99.90;;;;;;5043644;28;20219;-93
2021/03/30 05:18:54;;;;;;;130.47;54.43;;;7.90;99.90;;;;;;5036556;28;20203;-91
2021/03/30 05:21:20;;;;;;;144.97;64.03;;;7.90;99.90;;;;;;5052096;28;20214;-90
2021/03/30 05:23:47;;;;;;;110.87;47.67;;;7.90;99.90;;;;;;5034242;28;20249;-93
2021/03/30 05:26:13;;;;;;;124.07;50.30;;;7.90;99.90;;;;;;5052219;28;20179;-91
2021/03/30 05:28:39;;;;;;;120.30;52.13;;;7.80;99.90;;;;;;5034068;28;20237;-90
2021/03/30 05:31:07;;;;;;;120.27;49.93;;;7.90;99.90;;;;;;5049972;28;20168;-90
2021/03/30 05:33:33;;;;;;;129.47;54.47;;;7.90;99.90;;;;;;5034582;28;20184;-90
2021/03/30 05:35:58;;;;;;;129.87;52.13;;;7.90;99.90;;;;;;5047895;28;20222;-90
2021/03/30 05:38:24;;;;;;;133.67;51.17;;;7.90;99.90;;;;;;5055652;28;20200;-89
2021/03/30 05:40:50;;;;;;;131.33;50.67;;;8.20;99.90;;;;;;5055725;28;20640;-90
2021/03/30 05:43:17;;;;;;;126.60;49.47;;;8.50;99.90;;;;;;5054175;28;20184;-90
2021/03/30 05:45:43;;;;;;;129.67;49.63;;;7.90;99.90;;;;;;5010488;28;20589;-89
2021/03/30 05:48:12;;;;;;;123.00;49.37;;;7.60;99.90;;;;;;5033710;28;20235;-89
2021/03/30 05:50:38;;;;;;;126.07;48.63;;;8.00;99.90;;;;;;5045800;28;20184;-89
2021/03/30 05:53:09;;;;;;;120.50;49.40;;;8.00;99.90;;;;;;5021861;28;20547;-89
2021/03/30 05:55:37;;;;;;;130.13;48.37;;;8.00;99.90;;;;;;5037904;28;20215;-91
2021/03/30 05:58:05;;;;;;;115.93;47.63;;;8.00;99.90;;;;;;5051798;28;20187;-91
2021/03/30 06:00:34;;;;;;;119.17;49.03;;;8.00;99.90;;;;;;5030564;28;20769;-88
2021/03/30 06:03:06;;;;;;;118.27;48.13;;;8.10;99.90;;;;;;5020102;28;20217;-90
2021/03/30 06:05:37;;;;;;;119.13;48.37;;;8.10;99.90;;;;;;5053281;28;20628;-90
2021/03/30 06:08:06;;;;;;;113.03;46.33;;;8.60;99.90;;;;;;5021815;28;20180;-89
2021/03/30 06:10:34;;;;;;;122.07;51.00;;;7.20;99.90;;;;;;5013856;28;20192;-90
2021/03/30 06:13:01;;;;;;;117.90;46.93;;;8.30;99.90;;;;;;5037604;28;20194;-91
2021/03/30 06:15:32;;;;;;;126.43;48.10;;;8.30;99.90;;;;;;5032162;28;20644;-89
2021/03/30 06:17:59;;;;;;;100.67;42.80;;;8.20;99.90;;;;;;5038162;28;20176;-91
2021/03/30 06:20:37;;;;;;;118.50;49.27;;;8.40;99.90;;;;;;5055858;28;20172;-89
2021/03/30 06:23:07;;;;;;;122.20;46.80;;;8.30;99.90;;;;;;5038139;28;20180;-88
2021/03/30 06:25:42;;;;;;;127.83;48.93;;;8.50;99.90;;;;;;5038031;28;20190;-89
2021/03/30 06:28:23;;;;;;;121.77;47.67;;;8.40;99.90;;;;;;5035308;28;20192;-90
2021/03/30 06:30:58;;;;;;;111.97;47.00;;;8.50;99.90;;;;;;5036692;28;20199;-90
2021/03/30 06:33:27;;;;;;;111.93;46.87;;;8.50;99.90;;;;;;5046890;28;20203;-90
2021/03/30 06:36:31;;;;;;;105.03;43.33;;;8.70;99.90;;;;;;5037589;28;20215;-91
2021/03/30 06:39:02;;;;;;;109.97;44.80;;;8.50;99.90;;;;;;5048978;28;20176;-90
2021/03/30 06:42:12;;;;;;;119.77;47.17;;;7.10;99.90;;;;;;5037472;28;20627;-91
2021/03/30 06:44:39;;;;;;;111.73;45.70;;;8.50;99.90;;;;;;5042937;28;20652;-92
2021/03/30 06:47:13;;;;;;;115.97;48.33;;;8.50;99.90;;;;;;5046425;28;20219;-90
2021/03/30 06:50:03;;;;;;;117.17;46.83;;;8.70;99.90;;;;;;5055253;28;20180;-91
2021/03/30 06:52:35;;;;;;;116.90;47.87;;;8.80;99.90;;;;;;5034665;28;20180;-90
2021/03/30 06:55:08;;;;;;;115.53;47.20;;;8.70;99.90;;;;;;5037560;28;20294;-91
2021/03/30 06:57:40;;;;;;;120.77;46.97;;;8.80;99.90;;;;;;5042769;28;20180;-89
2021/03/30 07:00:10;;;;;;;111.27;44.47;;;8.70;99.90;;;;;;5031329;28;20195;-92
2021/03/30 07:02:40;;;;;;;109.70;45.77;;;8.80;99.90;;;;;;5051871;28;20184;-90
2021/03/30 07:05:07;;;;;;;101.57;43.27;;;8.80;99.90;;;;;;5037736;28;20192;-90
2021/03/30 07:07:34;;;;;;;119.50;47.00;;;9.00;99.90;;;;;;5020232;28;20203;-88
2021/03/30 07:10:01;;;;;;;114.67;46.60;;;8.90;99.90;;;;;;5037542;28;20575;-88
2021/03/30 07:12:27;;;;;;;110.87;46.43;;;9.00;99.90;;;;;;5020481;28;20306;-90
2021/03/30 07:14:53;;;;;;;105.67;43.63;;;8.80;99.90;;;;;;5036786;28;20211;-90
2021/03/30 07:17:35;;;;;;;117.47;45.20;;;8.90;99.90;;;;;;5048964;28;20184;-92
2021/03/30 07:20:05;;;;;;;108.13;45.20;;;9.10;99.90;;;;;;5049274;28;20188;-89
2021/03/30 07:22:33;;;;;;;114.83;46.57;;;8.90;99.90;;;;;;5037115;28;20211;-91
2021/03/30 07:25:06;;;;;;;107.40;44.43;;;9.10;99.90;;;;;;5040808;28;20184;-90
2021/03/30 07:27:51;;;;;;;109.50;44.83;;;9.10;99.90;;;;;;5036643;28;20562;-90
2021/03/30 07:30:18;;;;;;;106.63;46.40;;;9.20;99.90;;;;;;5022554;28;20548;-91
2021/03/30 07:33:03;;;;;;;108.43;46.57;;;9.00;99.90;;;;;;5036051;28;20612;-92
2021/03/30 07:35:32;;;;;;;111.00;47.00;;;9.10;99.90;;;;;;5037464;28;20278;-92
2021/03/30 07:38:13;;;;;;;108.63;46.47;;;9.00;99.90;;;;;;5036528;28;20180;-91
2021/03/30 07:40:43;;;;;;;103.17;43.70;;;9.10;99.90;;;;;;5035195;28;20639;-93
2021/03/30 07:43:34;;;;;;;101.53;43.80;;;9.10;99.90;;;;;;5035962;28;20258;-92
2021/03/30 07:46:03;;;;;;;98.67;42.40;;;9.10;99.90;;;;;;5052912;28;20269;-92
2021/03/30 07:48:31;;;;;;;93.73;43.97;;;9.20;99.90;;;;;;5056014;28;20172;-91
2021/03/30 07:51:10;;;;;;;98.27;44.40;;;9.20;99.90;;;;;;5041450;28;20250;-91
2021/03/30 07:53:44;;;;;;;93.30;41.87;;;9.20;99.90;;;;;;5020038;28;20773;-88
2021/03/30 07:56:22;;;;;;;95.27;43.93;;;9.30;99.90;;;;;;5022243;28;20211;-90
2021/03/30 07:58:49;;;;;;;95.67;42.67;;;9.30;99.90;;;;;;5035484;28;20175;-90
2021/03/30 08:01:17;;;;;;;100.10;42.90;;;9.30;99.90;;;;;;5035400;28;20290;-90
2021/03/30 08:03:44;;;;;;;94.40;41.17;;;9.40;99.90;;;;;;5035618;28;20192;-91
2021/03/30 08:06:21;;;;;;;96.97;44.63;;;9.50;99.90;;;;;;5018658;28;20270;-87
2021/03/30 08:08:57;;;;;;;89.20;41.03;;;9.50;99.90;;;;;;5035607;28;20237;-88
2021/03/30 08:11:42;;;;;;;90.83;41.27;;;9.50;99.90;;;;;;5035386;28;20203;-90
2021/03/30 08:14:37;;;;;;;87.07;41.53;;;9.60;99.90;;;;;;5035578;28;20187;-89
2021/03/30 08:17:06;;;;;;;91.47;41.20;;;9.50;99.90;;;;;;5044449;28;20261;-90
2021/03/30 08:19:31;;;;;;;83.87;40.87;;;9.60;99.90;;;;;;5051660;28;20195;-89
2021/03/30 08:22:05;;;;;;;90.80;41.03;;;9.60;99.90;;;;;;5052011;28;20187;-90
2021/03/30 08:24:49;;;;;;;88.47;42.17;;;9.70;99.90;;;;;;5051853;28;20195;-89
2021/03/30 08:27:36;;;;;;;84.40;41.67;;;9.70;99.90;;;;;;5051620;28;20180;-89
2021/03/30 08:30:25;;;;;;;85.20;40.30;;;9.70;99.90;;;;;;5050894;28;20183;-90
2021/03/30 08:32:54;;;;;;;84.73;41.53;;;9.90;99.90;;;;;;5002991;28;20231;-90
2021/03/30 08:35:28;;;;;;;84.90;39.73;;;9.90;99.90;;;;;;5052288;28;20254;-90
2021/03/30 08:37:55;;;;;;;87.63;40.67;;;9.90;99.90;;;;;;5045179;28;20671;-89
2021/03/30 08:40:36;;;;;;;82.10;38.60;;;9.90;99.90;;;;;;5047334;28;20230;-91
2021/03/30 08:43:12;;;;;;;87.90;41.07;;;10.00;99.90;;;;;;5052413;28;20196;-93
2021/03/30 08:46:02;;;;;;;84.77;39.70;;;9.90;99.90;;;;;;5023705;28;20200;-88
2021/03/30 08:48:53;;;;;;;84.20;40.67;;;10.00;99.90;;;;;;5034269;28;20195;-91
2021/03/30 08:51:22;;;;;;;75.30;37.87;;;10.10;99.90;;;;;;5010000;28;20185;-89
2021/03/30 08:53:48;;;;;;;77.67;39.93;;;10.10;99.90;;;;;;5015585;28;20173;-90
2021/03/30 08:56:16;;;;;;;74.70;38.63;;;10.10;99.90;;;;;;5013234;28;20691;-89
2021/03/30 08:58:44;;;;;;;78.90;36.60;;;10.30;99.90;;;;;;5038125;28;20175;-88
2021/03/30 09:01:10;;;;;;;72.57;36.73;;;10.20;99.90;;;;;;5018981;28;20206;-89
2021/03/30 09:03:36;;;;;;;79.03;36.83;;;10.30;99.90;;;;;;5035904;28;20186;-90
2021/03/30 09:06:05;;;;;;;77.27;35.27;;;10.30;99.90;;;;;;4998262;28;20189;-89
2021/03/30 09:08:34;;;;;;;78.13;36.23;;;10.30;99.90;;;;;;5025835;28;20172;-91
2021/03/30 09:11:18;;;;;;;83.13;35.53;;;10.70;99.90;;;;;;5015739;28;20220;-89
2021/03/30 09:14:00;;;;;;;75.00;36.70;;;10.30;99.90;;;;;;5015515;28;20338;-88
2021/03/30 09:16:26;;;;;;;73.20;37.13;;;10.40;99.90;;;;;;5031443;28;20236;-89
2021/03/30 09:19:11;;;;;;;79.40;38.47;;;10.40;99.90;;;;;;5033819;28;20188;-89
2021/03/30 09:21:36;;;;;;;43.70;22.17;;;10.40;99.90;;;;;;5031543;28;20180;-88
2021/03/30 09:24:07;;;;;;;69.23;35.10;;;10.40;99.90;;;;;;5015026;28;20188;-89
2021/03/30 09:26:37;;;;;;;65.77;31.83;;;10.40;99.90;;;;;;5031542;28;20203;-86
2021/03/30 09:29:03;;;;;;;74.10;35.33;;;10.40;99.90;;;;;;5032002;28;20168;-86
2021/03/30 09:31:28;;;;;;;81.43;36.73;;;10.50;99.90;;;;;;4990199;28;20272;-89
2021/03/30 09:33:58;;;;;;;71.37;36.60;;;10.50;99.90;;;;;;5012194;28;20264;-88
2021/03/30 09:36:24;;;;;;;75.17;35.33;;;10.50;99.90;;;;;;5008754;28;20251;-89
2021/03/30 09:38:52;;;;;;;68.13;35.20;;;10.50;99.90;;;;;;5034416;28;20180;-89
2021/03/30 09:41:37;;;;;;;79.67;37.43;;;10.60;99.90;;;;;;5034493;28;20176;-90
2021/03/30 09:44:04;;;;;;;70.43;34.20;;;10.60;99.90;;;;;;5051571;28;20184;-90
2021/03/30 09:46:30;;;;;;;68.77;37.27;;;10.60;99.90;;;;;;5019252;28;20242;-90
2021/03/30 09:48:56;;;;;;;69.97;38.20;;;10.70;99.90;;;;;;5049988;28;20203;-90
2021/03/30 09:51:22;;;;;;;73.07;36.27;;;10.70;99.90;;;;;;5052072;28;20225;-89
2021/03/30 09:53:48;;;;;;;70.97;35.97;;;10.70;99.90;;;;;;5052272;28;20222;-87
2021/03/30 09:56:22;;;;;;;71.03;37.73;;;10.70;99.90;;;;;;5051931;28;20207;-89
2021/03/30 09:58:55;;;;;;;70.70;36.17;;;10.70;99.90;;;;;;5051387;28;20184;-92
2021/03/30 10:01:21;;;;;;;76.33;35.33;;;10.80;99.90;;;;;;5038636;28;20769;-93
2021/03/30 10:03:48;;;;;;;65.43;32.83;;;10.80;99.90;;;;;;5022654;28;20189;-90
2021/03/30 10:06:20;;;;;;;66.03;33.57;;;10.80;99.90;;;;;;5005338;28;20746;-90
2021/03/30 10:08:47;;;;;;;67.07;34.57;;;10.80;99.90;;;;;;5051155;28;20184;-90
2021/03/30 10:11:25;;;;;;;63.23;34.43;;;10.80;99.90;;;;;;5050246;28;20188;-88
2021/03/30 10:13:51;;;;;;;68.23;34.07;;;10.80;99.90;;;;;;5006665;28;20248;-90
2021/03/30 10:16:17;;;;;;;68.03;33.93;;;10.90;99.90;;;;;;5032697;28;20758;-91
2021/03/30 10:18:44;;;;;;;67.60;34.73;;;11.00;99.90;;;;;;5051184;28;20276;-91
2021/03/30 10:21:13;;;;;;;76.40;35.13;;;11.00;99.90;;;;;;5053439;28;20191;-90
2021/03/30 10:23:49;;;;;;;69.30;34.73;;;11.00;99.90;;;;;;5054166;28;20279;-92
2021/03/30 10:26:21;;;;;;;64.60;35.40;;;11.10;99.90;;;;;;5055120;28;20179;-91
2021/03/30 10:28:55;;;;;;;62.03;34.37;;;11.20;99.90;;;;;;5052932;28;20183;-91
2021/03/30 10:31:41;;;;;;;72.33;33.60;;;11.20;99.90;;;;;;5047399;28;20721;-91
2021/03/30 10:34:33;;;;;;;64.47;33.03;;;11.30;99.90;;;;;;5032060;28;20186;-91
2021/03/30 10:37:02;;;;;;;72.60;32.13;;;11.50;99.90;;;;;;5030206;28;20189;-90
2021/03/30 10:39:39;;;;;;;59.50;30.77;;;11.50;99.90;;;;;;5046561;28;20576;-95
2021/03/30 10:42:29;;;;;;;65.50;31.03;;;11.60;99.90;;;;;;5043217;28;20271;-90
2021/03/30 10:45:05;;;;;;;60.90;32.53;;;11.70;99.90;;;;;;5030964;28;20271;-92
2021/03/30 10:47:39;;;;;;;62.30;32.27;;;11.70;99.90;;;;;;5051020;28;20223;-90
2021/03/30 10:50:15;;;;;;;66.27;30.97;;;11.90;99.90;;;;;;5035327;28;20229;-90
2021/03/30 10:52:43;;;;;;;63.57;32.73;;;11.70;99.90;;;;;;5016189;28;20738;-92
2021/03/30 10:55:13;;;;;;;58.13;30.27;;;11.80;99.90;;;;;;5034035;28;20710;-90
2021/03/30 10:57:43;;;;;;;57.80;29.73;;;11.70;99.90;;;;;;5032649;28;20191;-90
2021/03/30 11:00:10;;;;;;;57.10;30.70;;;11.80;99.90;;;;;;5049582;28;20180;-89
2021/03/30 11:02:36;;;;;;;66.13;31.63;;;11.80;99.90;;;;;;5034299;28;20195;-90
2021/03/30 11:05:03;;;;;;;64.77;34.63;;;11.80;99.90;;;;;;5033026;28;20266;-89
2021/03/30 11:07:29;;;;;;;55.92;29.85;;;11.80;99.90;;;;;;5051042;28;20660;-89
2021/03/30 11:09:55;;;;;;;55.75;29.55;;;11.70;99.90;;;;;;5017414;28;20291;-90
2021/03/30 11:12:21;;;;;;;55.97;29.67;;;11.80;99.90;;;;;;5015707;28;20837;-90
2021/03/30 11:14:46;;;;;;;55.55;30.00;;;11.70;99.90;;;;;;5033573;28;20216;-89
2021/03/30 11:17:12;;;;;;;54.50;30.33;;;11.70;99.90;;;;;;5031728;28;20670;-89
2021/03/30 11:19:38;;;;;;;60.47;29.93;;;11.80;99.90;;;;;;5017714;28;20192;-89
2021/03/30 11:22:05;;;;;;;54.10;28.48;;;11.80;99.90;;;;;;4999861;28;20181;-90
2021/03/30 11:24:34;;;;;;;51.40;27.95;;;11.90;99.90;;;;;;5033621;28;20230;-90
2021/03/30 11:27:00;;;;;;;54.87;28.43;;;11.80;99.90;;;;;;5033705;28;20920;-90
2021/03/30 11:32:13;;;;;;;53.58;28.05;;;11.90;99.90;;;;;;5033376;28;20249;-90
2021/03/30 11:35:21;;;;;;;45.53;26.50;;;11.80;99.90;;;;;;5047011;28;20189;-90
2021/03/30 11:39:56;;;;;;;56.37;28.67;;;12.00;99.90;;;;;;5033720;28;20602;-90
2021/03/30 11:42:22;;;;;;;55.88;28.08;;;12.10;99.90;;;;;;5043119;28;20263;-90
2021/03/30 11:44:47;;;;;;;48.13;26.63;;;12.20;99.90;;;;;;5033282;28;20211;-88
2021/03/30 11:47:14;;;;;;;53.53;26.35;;;12.20;99.90;;;;;;4998839;28;20640;-89
2021/03/30 11:49:39;;;;;;;54.00;26.35;;;12.20;99.90;;;;;;5034200;28;20652;-90
2021/03/30 11:52:06;;;;;;;47.57;27.40;;;12.20;99.90;;;;;;5043769;28;20198;-91
2021/03/30 11:54:32;;;;;;;50.75;25.73;;;12.20;99.90;;;;;;5033712;28;20267;-91
2021/03/30 11:56:58;;;;;;;50.53;25.75;;;12.30;99.90;;;;;;5016091;28;20193;-94
2021/03/30 11:59:24;;;;;;;49.75;24.80;;;12.40;99.90;;;;;;5049933;28;20257;-92
2021/03/30 12:01:50;;;;;;;43.53;23.02;;;12.50;99.90;;;;;;5031422;28;20636;-92
2021/03/30 12:04:16;;;;;;;51.42;25.23;;;12.50;99.90;;;;;;5031526;28;20217;-92
2021/03/30 12:06:42;;;;;;;43.70;23.70;;;12.40;99.90;;;;;;5050279;28;20184;-89
2021/03/30 12:09:08;;;;;;;43.40;22.50;;;12.50;99.90;;;;;;5050589;28;20250;-91
2021/03/30 12:11:34;;;;;;;41.42;21.67;;;12.50;99.90;;;;;;5016721;28;20214;-92
2021/03/30 12:14:00;;;;;;;50.15;23.67;;;12.60;99.90;;;;;;5017141;28;20195;-90
2021/03/30 12:16:26;;;;;;;46.20;23.83;;;12.70;99.90;;;;;;5000912;28;20207;-90
2021/03/30 12:18:52;;;;;;;46.50;23.40;;;12.80;99.90;;;;;;5046833;28;20218;-90
2021/03/30 12:21:19;;;;;;;44.47;22.08;;;12.90;99.90;;;;;;5033461;28;20254;-87
2021/03/30 12:23:45;;;;;;;44.10;22.35;;;12.90;99.90;;;;;;5031685;28;20183;-91
2021/03/30 12:26:10;;;;;;;39.58;21.48;;;13.00;99.90;;;;;;5015404;28;20202;-91
2021/03/30 12:28:36;;;;;;;44.30;21.05;;;13.00;99.90;;;;;;5032798;28;20215;-89
2021/03/30 12:31:02;;;;;;;43.65;20.73;;;12.90;99.90;;;;;;5032425;28;20188;-90
2021/03/30 12:33:27;;;;;;;43.90;21.77;;;13.00;99.90;;;;;;5012961;28;20553;-88
2021/03/30 12:35:53;;;;;;;43.15;20.67;;;13.10;99.90;;;;;;5030293;28;20208;-89
2021/03/30 12:38:20;;;;;;;35.53;20.13;;;13.10;99.90;;;;;;5033593;28;20184;-93
2021/03/30 12:40:47;;;;;;;38.70;20.60;;;13.10;99.90;;;;;;5027370;28;20550;-91
2021/03/30 12:43:13;;;;;;;45.47;22.42;;;13.10;99.90;;;;;;5033375;28;20233;-91
2021/03/30 12:45:39;;;;;;;41.30;20.67;;;13.00;99.90;;;;;;5033056;28;20275;-92
2021/03/30 12:48:06;;;;;;;49.30;21.27;;;12.90;99.90;;;;;;5033266;28;20362;-91
2021/03/30 12:50:33;;;;;;;44.25;21.85;;;12.90;99.90;;;;;;5016785;28;20250;-91
2021/03/30 12:52:59;;;;;;;43.10;21.77;;;12.90;99.90;;;;;;5047067;28;20519;-91
2021/03/30 12:55:25;;;;;;;42.75;21.35;;;13.00;99.90;;;;;;5049459;28;20281;-90
2021/03/30 12:57:51;;;;;;;44.35;22.02;;;13.00;99.90;;;;;;5031511;28;20211;-89
2021/03/30 13:00:17;;;;;;;51.67;23.75;;;13.00;99.90;;;;;;5032619;28;20257;-89
2021/03/30 13:02:43;;;;;;;43.10;22.08;;;12.90;99.90;;;;;;5034124;28;20184;-92
2021/03/30 13:05:10;;;;;;;42.63;21.40;;;12.90;99.90;;;;;;5034028;28;20175;-94
2021/03/30 13:07:36;;;;;;;40.15;22.05;;;13.00;99.90;;;;;;5052783;28;20632;-92
2021/03/30 13:10:02;;;;;;;40.65;22.13;;;13.10;99.90;;;;;;5047699;28;20185;-95
2021/03/30 13:12:28;;;;;;;42.40;23.25;;;14.00;99.90;;;;;;5000813;28;20283;-91
2021/03/30 13:14:54;;;;;;;43.10;21.85;;;13.10;99.90;;;;;;5032339;28;20302;-94
2021/03/30 13:17:19;;;;;;;51.25;23.98;;;13.10;99.90;;;;;;5000604;28;20187;-90
2021/03/30 13:19:45;;;;;;;46.42;23.90;;;12.90;99.90;;;;;;4997996;28;20207;-91
2021/03/30 13:22:11;;;;;;;44.03;24.08;;;12.80;99.90;;;;;;4998607;28;20602;-91
2021/03/30 13:24:40;;;;;;;51.05;26.17;;;12.80;99.90;;;;;;5050024;28;20668;-90
2021/03/30 13:27:10;;;;;;;50.25;24.92;;;12.90;99.90;;;;;;5015061;28;20655;-91
2021/03/30 13:29:40;;;;;;;49.42;24.58;;;12.90;99.90;;;;;;5046382;28;20183;-92
2021/03/30 13:32:13;;;;;;;48.67;26.23;;;12.90;99.90;;;;;;5020390;28;20210;-90